Cherokee, Kentucky
Current Conditions -  °F | °C
As of 1:51 AM on Sunday 26 Oct 2014 (Local Time) from KHTS Reporting Station
Haze Haze  
Wind Chill: 57°   Ceiling: Unl
Heat Index: 57°   Visibility: 6mi
Dew Point: 55°   Wind: 6mph
Humidity: 93%   Direction: 210°SSW
Pressure: 29.89"   Gusts: NA
Location:  38.152°N, 82.7951°W
Report Text: KHTS 260551Z 21005KT 6SM BR CLR 14/13 A2989 RMK AO2 SLP119 T01390128 10161 20139 55002
Loading
Personal Weather Stations






























Interactive Weather Map
Tropical Storm Tracking
New forecast layout! Learn more

10-Day Weather Forecast

Advertisements
Track Severe Weather on mobile